Weather at Bendigo Airport

Public forecast

Using degrees Celsius for public forecast. Weather courtesy of forecast.io.

Closest aviation weather report (METAR) to Bendigo Airport

Closest report is Melbourne International Airport, 61.2 nm (113.3 km) SSE.

2024/04/24 16:00 (retrieved 24 minutes ago)

YMML 241600Z 31008KT 9999 FEW042 BKN057 09/07 Q1023 RF000/0000

Closest aviation forecast (TAF) to Bendigo Airport

Closest forecast is Melbourne International Airport, 61.2 nm (113.3 km) SSE.

2024/04/24 15:51 (retrieved 33 minutes ago)

TAF YMML 241404Z 2415/2518 28007KT 9999 SCT025 BKN035 FM250100 21014KT 9999 -SHRA SCT030 BKN040 FM250800 23008KT 9999 NSW SCT040